Rising Fawn, GA

8:22 PM EDT on August 30, 2016 (GMT -0400)
| | Change Station

Elev -9999 ft 0.00 °N, 0.00 °E | Updated

Clear
Clear
78 °F
Feels Like 78 °F
N
2
Wind Variable Wind from East
Gusts mph

Today
High -- | Low -- °F
--% Chance of Precip.
Yesterday
High -- | Low -- °F
Precip. -- in
Pressure 29.96 in
Visibility 10.0 miles
Clouds Few 6000 ft
Few 25000 ft
Dew Point 67 °F
Humidity 69%
Rainfall --
Snow Depth Not available.
7:13 AM 8:10 PM
Waning Crescent, 2% visible
METAR KCHA 302353Z 02005KT 10SM FEW060 FEW250 32/16 A2998 RMK AO2 SLP144 T03220161 10344 20322 56010
Pressure 29.96 in
Visibility 10.0 miles
Clouds Few 6000 ft
Few 25000 ft
Dew Point 67 °F
Humidity 69%
Rainfall --
Snow Depth Not available.
7:13 AM 8:10 PM
Waning Crescent, 2% visible
METAR KCHA 302353Z 02005KT 10SM FEW060 FEW250 32/16 A2998 RMK AO2 SLP144 T03220161 10344 20322 56010

10-Day Weather Forecast

Almanac

Astronomy

Aug. 30, 2016 Rise Set
Actual Time
Civil Twilight
Nautical Twilight
Astronomical Twilight
Moon
Length of Visible Light
Length of Day
Tomorrow will be .
, % of the Moon is Illuminated

Today's Extremes

State Highs State Lows

Community

WunderPhotos

Upload Photos

1,935,961 photos uploaded!

WunderBlog® & News

Nearby

Air Quality

  Air Quality AQ Index Pollutant
Not available.

Snow Depth

Station Depth Elevation

Earthquake Activity

City Distance Mag. Time & Date
Minimum magnitude displayed is 2.5.

Coastal Water Temperatures

Place Temperature

Stations

Nearby Weather Stations

Station Location Temp. Windchill Dew Point Humidity Wind Precip. Elev Updated Type
                   

Watches & Warnings

There are currently no watches in effect.